Time;durP1;ratioP1;P1;durP2;ratioP2;P2;SDS_P1;SDS_P2;PMS_P1;PMS_P2;Temp;Humidity;BMP_temperature;BMP_pressure;BME280_temperature;BME280_humidity;BME280_pressure;Samples;Min_cycle;Max_cycle;Signal;HPM_P1;HPM_P2
2023/08/22 00:00:16;;;;;;;9.32;8.52;;;;;;;;;;10059319;28;20587;-77
2023/08/22 00:05:08;;;;;;;8.73;7.43;;;;;;;;;;10062596;28;20483;-78
2023/08/22 00:10:00;;;;;;;8.20;7.45;;;;;;;;;;10064509;28;20053;-76
2023/08/22 00:14:52;;;;;;;8.90;7.57;;;;;;;;;;10061972;28;20057;-75
2023/08/22 00:19:45;;;;;;;9.65;8.02;;;;;;;;;;10065066;28;20049;-75
2023/08/22 00:24:36;;;;;;;8.80;8.00;;;;;;;;;;10065262;28;20073;-77
2023/08/22 00:29:28;;;;;;;9.10;8.30;;;;;;;;;;10058760;28;20049;-76
2023/08/22 00:34:22;;;;;;;11.27;8.10;;;;;;;;;;10064301;28;20040;-76
2023/08/22 00:39:14;;;;;;;8.75;7.85;;;;;;;;;;10060796;28;20068;-77
2023/08/22 00:44:06;;;;;;;10.07;8.35;;;;;;;;;;10042352;28;20140;-75
2023/08/22 00:48:58;;;;;;;9.52;7.47;;;;;;;;;;10059881;28;20457;-78
2023/08/22 00:53:50;;;;;;;8.55;7.68;;;;;;;;;;10045240;28;20045;-76
2023/08/22 00:58:43;;;;;;;9.73;8.77;;;;;;;;;;10044152;28;20056;-78
2023/08/22 01:03:35;;;;;;;15.45;8.32;;;;;;;;;;10059753;28;20111;-78
2023/08/22 01:08:39;;;;;;;10.60;7.88;;;;;;;;;;10063334;28;20049;-75
2023/08/22 01:13:33;;;;;;;10.02;8.52;;;;;;;;;;10040500;28;20119;-76
2023/08/22 01:18:26;;;;;;;9.73;8.10;;;;;;;;;;10045436;28;20096;-78
2023/08/22 01:23:18;;;;;;;8.30;7.60;;;;;;;;;;10048086;28;20045;-77
2023/08/22 01:28:37;;;;;;;9.23;8.43;;;;;;;;;;10062468;28;20045;-78
2023/08/22 01:34:08;;;;;;;8.48;7.68;;;;;;;;;;10025136;28;20057;-75
2023/08/22 01:39:06;;;;;;;9.48;8.18;;;;;;;;;;9995419;28;20139;-77
2023/08/22 01:43:58;;;;;;;8.27;7.47;;;;;;;;;;10046309;28;20041;-78
2023/08/22 01:48:50;;;;;;;8.90;7.78;;;;;;;;;;10045629;28;20503;-78
2023/08/22 01:53:44;;;;;;;8.95;8.05;;;;;;;;;;10043969;28;20163;-78
2023/08/22 01:58:36;;;;;;;12.40;8.25;;;;;;;;;;10063053;28;20046;-77
2023/08/22 02:03:27;;;;;;;9.85;8.20;;;;;;;;;;10063431;28;20041;-78
2023/08/22 02:08:20;;;;;;;9.10;7.47;;;;;;;;;;10059072;28;20103;-78
2023/08/22 02:13:11;;;;;;;10.15;7.18;;;;;;;;;;10074437;28;20037;-78
2023/08/22 02:18:04;;;;;;;10.25;7.32;;;;;;;;;;10054192;28;20486;-78
2023/08/22 02:22:56;;;;;;;8.70;7.90;;;;;;;;;;10061009;28;20049;-77
2023/08/22 02:27:48;;;;;;;13.20;7.57;;;;;;;;;;10045560;28;20088;-79
2023/08/22 02:32:40;;;;;;;8.82;6.88;;;;;;;;;;10044871;28;20349;-78
2023/08/22 02:37:32;;;;;;;8.65;7.82;;;;;;;;;;10061579;28;20438;-78
2023/08/22 02:42:24;;;;;;;7.72;7.03;;;;;;;;;;10059727;28;20041;-78
2023/08/22 02:47:17;;;;;;;7.75;7.05;;;;;;;;;;10043488;28;20050;-78
2023/08/22 02:52:09;;;;;;;8.18;7.28;;;;;;;;;;10057133;28;20037;-78
2023/08/22 02:57:02;;;;;;;8.00;7.18;;;;;;;;;;10058827;28;20132;-79
2023/08/22 03:01:54;;;;;;;6.63;6.03;;;;;;;;;;10041523;28;20071;-75
2023/08/22 03:06:46;;;;;;;8.77;7.57;;;;;;;;;;10059584;28;20371;-79
2023/08/22 03:11:39;;;;;;;7.95;7.22;;;;;;;;;;10040964;28;20045;-78
2023/08/22 03:16:31;;;;;;;8.05;7.38;;;;;;;;;;10059142;28;20058;-79
2023/08/22 03:21:24;;;;;;;11.15;10.02;;;;;;;;;;10042610;28;20128;-79
2023/08/22 03:26:17;;;;;;;11.73;8.75;;;;;;;;;;10048208;28;20045;-76
2023/08/22 03:31:09;;;;;;;11.35;9.23;;;;;;;;;;10068923;28;20041;-77
2023/08/22 03:36:05;;;;;;;11.93;9.52;;;;;;;;;;10049167;28;20092;-79
2023/08/22 03:40:57;;;;;;;10.07;9.10;;;;;;;;;;10065888;28;20045;-79
2023/08/22 03:45:49;;;;;;;9.05;8.35;;;;;;;;;;10037065;28;20061;-79
2023/08/22 03:50:42;;;;;;;10.27;9.38;;;;;;;;;;10038200;28;20057;-76
2023/08/22 03:55:34;;;;;;;9.25;8.38;;;;;;;;;;10049650;28;20520;-78
2023/08/22 04:00:27;;;;;;;9.63;8.65;;;;;;;;;;10066863;28;20120;-79
2023/08/22 04:05:19;;;;;;;10.48;9.25;;;;;;;;;;10066790;28;20377;-78
2023/08/22 04:10:11;;;;;;;9.00;8.18;;;;;;;;;;10048088;28;20050;-79
2023/08/22 04:15:03;;;;;;;9.40;8.50;;;;;;;;;;10052803;28;20049;-78
2023/08/22 04:19:55;;;;;;;9.45;8.55;;;;;;;;;;10065428;28;20065;-78
2023/08/22 04:24:47;;;;;;;9.70;8.82;;;;;;;;;;10060847;28;20041;-80
2023/08/22 04:29:40;;;;;;;13.80;8.25;;;;;;;;;;10048561;28;20422;-75
2023/08/22 04:34:32;;;;;;;8.75;7.95;;;;;;;;;;10042021;28;20080;-77
2023/08/22 04:39:26;;;;;;;10.85;8.27;;;;;;;;;;10028663;28;20076;-78
2023/08/22 04:44:31;;;;;;;9.70;8.80;;;;;;;;;;10031970;28;20128;-79
2023/08/22 04:49:24;;;;;;;10.63;8.38;;;;;;;;;;10047716;28;20034;-79
2023/08/22 04:54:15;;;;;;;8.85;7.95;;;;;;;;;;10066168;28;20132;-78
2023/08/22 04:59:08;;;;;;;10.25;8.77;;;;;;;;;;10049412;28;20045;-77
2023/08/22 05:04:00;;;;;;;9.70;8.70;;;;;;;;;;10048938;28;20046;-79
2023/08/22 05:08:52;;;;;;;9.63;8.75;;;;;;;;;;10066492;28;20046;-77
2023/08/22 05:13:44;;;;;;;10.13;9.10;;;;;;;;;;10065814;28;20460;-77
2023/08/22 05:18:37;;;;;;;8.98;8.07;;;;;;;;;;10065121;28;20080;-78
2023/08/22 05:23:29;;;;;;;10.15;7.70;;;;;;;;;;10048941;28;20049;-77
2023/08/22 05:28:21;;;;;;;9.57;7.25;;;;;;;;;;10065653;28;20081;-78
2023/08/22 05:33:13;;;;;;;7.70;7.00;;;;;;;;;;10065982;28;20057;-78
2023/08/22 05:38:06;;;;;;;9.18;8.38;;;;;;;;;;10036030;28;20053;-78
2023/08/22 05:42:58;;;;;;;8.40;7.43;;;;;;;;;;10060027;28;20128;-80
2023/08/22 05:47:51;;;;;;;7.70;7.00;;;;;;;;;;10046030;28;20045;-78
2023/08/22 05:52:43;;;;;;;10.52;7.80;;;;;;;;;;10047618;28;20468;-77
2023/08/22 05:57:35;;;;;;;7.40;6.70;;;;;;;;;;10046731;28;20380;-79
2023/08/22 06:02:27;;;;;;;8.65;7.85;;;;;;;;;;10064589;28;20095;-78
2023/08/22 06:07:19;;;;;;;10.18;7.88;;;;;;;;;;10051284;28;20144;-79
2023/08/22 06:12:11;;;;;;;8.80;7.57;;;;;;;;;;10031449;28;20045;-77
2023/08/22 06:17:04;;;;;;;7.80;6.93;;;;;;;;;;10061942;28;20049;-79
2023/08/22 06:21:56;;;;;;;12.65;9.07;;;;;;;;;;10042429;28;20173;-78
2023/08/22 06:26:48;;;;;;;11.70;10.40;;;;;;;;;;10038089;28;20380;-78
2023/08/22 06:31:42;;;;;;;11.75;10.18;;;;;;;;;;10032606;28;20085;-78
2023/08/22 06:36:34;;;;;;;17.67;11.40;;;;;;;;;;10043504;28;20144;-78
2023/08/22 06:41:27;;;;;;;11.38;9.02;;;;;;;;;;10031651;28;20129;-79
2023/08/22 06:46:21;;;;;;;11.93;9.40;;;;;;;;;;10038701;28;20050;-78
2023/08/22 06:51:13;;;;;;;12.95;8.93;;;;;;;;;;10036096;28;20067;-77
2023/08/22 06:56:05;;;;;;;10.45;9.18;;;;;;;;;;10040392;28;20100;-78
2023/08/22 07:00:57;;;;;;;24.05;10.88;;;;;;;;;;10027941;28;20054;-75
2023/08/22 07:05:52;;;;;;;15.32;9.70;;;;;;;;;;10030846;28;20050;-76
2023/08/22 07:10:45;;;;;;;14.50;9.40;;;;;;;;;;10046788;28;20044;-74
2023/08/22 07:15:36;;;;;;;16.67;8.93;;;;;;;;;;10091566;28;20044;-73
2023/08/22 07:20:29;;;;;;;18.85;9.98;;;;;;;;;;10087321;28;20126;-74
2023/08/22 07:25:20;;;;;;;15.23;8.35;;;;;;;;;;10074175;28;20084;-75
2023/08/22 07:30:12;;;;;;;8.20;7.50;;;;;;;;;;10067358;28;20050;-75
2023/08/22 07:35:05;;;;;;;10.02;8.05;;;;;;;;;;10065246;28;20069;-75
2023/08/22 07:39:58;;;;;;;15.20;8.38;;;;;;;;;;10068396;28;20112;-74
2023/08/22 07:44:50;;;;;;;17.48;8.13;;;;;;;;;;10069141;28;20053;-74
2023/08/22 07:49:42;;;;;;;13.88;8.70;;;;;;;;;;10080127;28;20052;-74
2023/08/22 07:54:34;;;;;;;10.10;9.07;;;;;;;;;;10066812;28;20125;-74
2023/08/22 07:59:25;;;;;;;13.82;7.55;;;;;;;;;;10073353;28;20077;-76
2023/08/22 08:04:19;;;;;;;13.02;7.78;;;;;;;;;;10030904;28;20129;-77
2023/08/22 08:09:11;;;;;;;9.18;8.00;;;;;;;;;;10056981;28;20049;-75
2023/08/22 08:14:16;;;;;;;14.43;8.98;;;;;;;;;;10064355;28;20107;-76
2023/08/22 08:19:08;;;;;;;13.32;7.50;;;;;;;;;;10060463;28;20748;-76
2023/08/22 08:24:00;;;;;;;11.15;7.65;;;;;;;;;;10066631;28;20049;-77
2023/08/22 08:28:51;;;;;;;10.45;7.90;;;;;;;;;;10064929;28;20111;-76
2023/08/22 08:33:43;;;;;;;9.18;8.23;;;;;;;;;;10065811;28;20431;-76
2023/08/22 08:38:35;;;;;;;10.05;7.95;;;;;;;;;;10066428;28;20050;-73
2023/08/22 08:43:28;;;;;;;8.98;7.90;;;;;;;;;;10069326;28;20068;-75
2023/08/22 08:48:21;;;;;;;9.65;7.72;;;;;;;;;;10074823;28;20045;-76
2023/08/22 08:53:13;;;;;;;11.00;8.85;;;;;;;;;;10091015;28;20136;-76
2023/08/22 08:58:05;;;;;;;9.27;7.68;;;;;;;;;;10081132;28;20719;-76
2023/08/22 09:02:57;;;;;;;12.18;6.95;;;;;;;;;;10074596;28;20112;-76
2023/08/22 09:07:49;;;;;;;9.05;8.23;;;;;;;;;;10062819;28;20048;-76
2023/08/22 09:12:41;;;;;;;11.27;8.07;;;;;;;;;;10055987;28;20092;-75
2023/08/22 09:17:33;;;;;;;10.68;7.65;;;;;;;;;;10068879;28;20345;-77
2023/08/22 09:22:32;;;;;;;8.70;7.85;;;;;;;;;;10070652;28;20132;-77
2023/08/22 09:27:27;;;;;;;9.27;7.70;;;;;;;;;;10066586;28;20041;-74
2023/08/22 09:32:22;;;;;;;8.75;7.07;;;;;;;;;;10076520;28;20037;-75
2023/08/22 09:37:33;;;;;;;8.23;7.25;;;;;;;;;;10073615;28;20471;-76
2023/08/22 09:42:29;;;;;;;10.60;8.25;;;;;;;;;;10078580;28;20076;-75
2023/08/22 09:47:23;;;;;;;10.15;8.98;;;;;;;;;;10071060;28;20388;-77
2023/08/22 09:52:15;;;;;;;9.48;8.45;;;;;;;;;;10080537;28;20095;-76
2023/08/22 09:57:08;;;;;;;9.98;8.30;;;;;;;;;;10071375;28;20041;-77
2023/08/22 10:02:00;;;;;;;8.50;7.57;;;;;;;;;;10068435;28;20053;-77
2023/08/22 10:06:52;;;;;;;11.05;6.97;;;;;;;;;;10073460;28;20037;-76
2023/08/22 10:12:06;;;;;;;8.80;7.88;;;;;;;;;;10070317;28;20049;-71
2023/08/22 10:16:59;;;;;;;8.57;7.78;;;;;;;;;;10033721;28;20490;-72
2023/08/22 10:21:53;;;;;;;8.27;7.18;;;;;;;;;;10057202;28;20068;-72
2023/08/22 10:27:04;;;;;;;7.93;7.13;;;;;;;;;;10055060;28;20073;-72
2023/08/22 10:32:02;;;;;;;9.15;7.47;;;;;;;;;;10048595;28;20080;-72
2023/08/22 10:36:59;;;;;;;8.30;7.15;;;;;;;;;;10061651;28;20152;-72
2023/08/22 10:41:54;;;;;;;8.00;7.27;;;;;;;;;;10056671;28;20068;-72
2023/08/22 10:47:03;;;;;;;10.93;7.25;;;;;;;;;;10049034;28;20046;-72
2023/08/22 10:52:04;;;;;;;8.70;7.38;;;;;;;;;;10054818;28;20493;-68
2023/08/22 10:57:16;;;;;;;8.90;7.43;;;;;;;;;;10056591;28;20041;-72
2023/08/22 11:02:09;;;;;;;8.55;7.68;;;;;;;;;;10049940;28;20057;-72
2023/08/22 11:07:00;;;;;;;8.13;7.28;;;;;;;;;;10037570;28;20041;-72
2023/08/22 11:11:52;;;;;;;8.77;7.95;;;;;;;;;;10057689;28;20463;-69
2023/08/22 11:16:45;;;;;;;8.02;7.22;;;;;;;;;;10059588;28;20053;-71
2023/08/22 11:21:38;;;;;;;11.27;8.10;;;;;;;;;;10070632;28;20128;-69
2023/08/22 11:26:30;;;;;;;9.52;7.78;;;;;;;;;;10051038;28;20125;-72
2023/08/22 11:31:22;;;;;;;12.95;7.97;;;;;;;;;;10057405;28;20056;-72
2023/08/22 11:36:15;;;;;;;7.88;7.15;;;;;;;;;;10058572;28;20049;-73
2023/08/22 11:41:07;;;;;;;8.48;6.78;;;;;;;;;;10057971;28;20380;-72
2023/08/22 11:46:03;;;;;;;11.15;7.28;;;;;;;;;;10059865;28;20041;-70
2023/08/22 11:50:55;;;;;;;12.00;7.57;;;;;;;;;;10062944;28;20129;-71
2023/08/22 11:55:49;;;;;;;7.72;6.53;;;;;;;;;;10046779;28;20132;-71
2023/08/22 12:00:41;;;;;;;8.13;7.43;;;;;;;;;;10028149;28;20068;-73
2023/08/22 12:05:40;;;;;;;11.48;6.88;;;;;;;;;;10066867;28;20057;-73
2023/08/22 12:10:53;;;;;;;8.85;7.43;;;;;;;;;;10027705;28;20136;-73
2023/08/22 12:15:46;;;;;;;8.55;7.18;;;;;;;;;;10046183;28;20050;-74
2023/08/22 12:20:40;;;;;;;7.90;6.13;;;;;;;;;;10058332;28;20396;-70
2023/08/22 12:25:34;;;;;;;10.88;6.43;;;;;;;;;;10059719;28;20049;-71
2023/08/22 12:30:25;;;;;;;9.88;7.65;;;;;;;;;;10077577;28;20127;-71
2023/08/22 12:35:17;;;;;;;9.95;6.25;;;;;;;;;;10072947;28;20049;-69
2023/08/22 12:40:12;;;;;;;7.13;6.10;;;;;;;;;;10063274;28;20041;-71
2023/08/22 12:45:05;;;;;;;9.23;6.10;;;;;;;;;;10060174;28;20048;-69
2023/08/22 12:49:57;;;;;;;9.38;7.20;;;;;;;;;;10062793;28;20481;-70
2023/08/22 12:54:49;;;;;;;14.35;6.78;;;;;;;;;;10034316;28;20037;-70
2023/08/22 12:59:41;;;;;;;7.30;6.55;;;;;;;;;;10059727;28;20112;-70
2023/08/22 13:04:33;;;;;;;11.23;6.85;;;;;;;;;;10069058;28;20420;-70
2023/08/22 13:09:25;;;;;;;6.88;6.28;;;;;;;;;;10063009;28;20383;-69
2023/08/22 13:14:16;;;;;;;14.07;7.03;;;;;;;;;;10060638;28;20049;-69
2023/08/22 13:19:09;;;;;;;8.43;7.15;;;;;;;;;;10062850;28;20045;-70
2023/08/22 13:24:00;;;;;;;11.77;8.35;;;;;;;;;;10073891;28;20490;-71
2023/08/22 13:28:52;;;;;;;8.73;6.28;;;;;;;;;;10065534;28;20357;-72
2023/08/22 13:33:44;;;;;;;7.38;5.80;;;;;;;;;;10053530;28;20054;-69
2023/08/22 13:38:36;;;;;;;6.93;6.22;;;;;;;;;;10062592;28;20049;-69
2023/08/22 13:43:28;;;;;;;9.38;6.55;;;;;;;;;;10063561;28;20056;-69
2023/08/22 13:48:20;;;;;;;10.73;6.05;;;;;;;;;;10061328;28;20045;-71
2023/08/22 13:53:12;;;;;;;11.50;6.90;;;;;;;;;;10072112;28;20088;-70
2023/08/22 13:58:04;;;;;;;9.35;5.97;;;;;;;;;;10057961;28;20065;-69
2023/08/22 14:02:57;;;;;;;10.48;5.95;;;;;;;;;;10072128;28;20128;-71
2023/08/22 14:07:49;;;;;;;6.70;5.90;;;;;;;;;;10061815;28;20045;-69
2023/08/22 14:12:42;;;;;;;7.93;6.00;;;;;;;;;;10058637;28;20080;-70
2023/08/22 14:17:34;;;;;;;7.75;6.22;;;;;;;;;;10025259;28;20380;-70
2023/08/22 14:22:25;;;;;;;7.75;6.32;;;;;;;;;;10061760;28;20092;-70
2023/08/22 14:27:17;;;;;;;11.00;6.85;;;;;;;;;;10059313;28;20041;-71
2023/08/22 14:32:09;;;;;;;10.60;5.95;;;;;;;;;;10058574;28;20456;-69
2023/08/22 14:37:02;;;;;;;5.90;5.40;;;;;;;;;;10058917;28;20042;-68
2023/08/22 14:42:12;;;;;;;8.85;5.38;;;;;;;;;;10049856;28;20045;-68
2023/08/22 14:47:04;;;;;;;7.47;5.63;;;;;;;;;;10058649;28;20371;-70
2023/08/22 14:51:57;;;;;;;6.47;5.72;;;;;;;;;;10059191;28;20048;-68
2023/08/22 14:56:49;;;;;;;8.20;4.95;;;;;;;;;;10045932;28;20129;-70
2023/08/22 15:01:42;;;;;;;7.38;5.05;;;;;;;;;;10064737;28;20124;-69
2023/08/22 15:06:34;;;;;;;7.93;5.00;;;;;;;;;;10081601;28;20540;-66
2023/08/22 15:11:26;;;;;;;7.93;5.95;;;;;;;;;;10054481;28;20419;-68
2023/08/22 15:16:18;;;;;;;5.25;4.75;;;;;;;;;;10066207;28;20057;-68
2023/08/22 15:21:09;;;;;;;8.45;5.30;;;;;;;;;;10063441;28;20081;-68
2023/08/22 15:26:04;;;;;;;7.72;5.47;;;;;;;;;;10069457;28;20060;-70
2023/08/22 15:30:57;;;;;;;7.50;5.50;;;;;;;;;;10064720;28;20045;-71
2023/08/22 15:35:49;;;;;;;5.35;4.57;;;;;;;;;;10072247;28;20049;-69
2023/08/22 15:40:50;;;;;;;7.05;4.80;;;;;;;;;;10068439;28;20049;-71
2023/08/22 15:45:43;;;;;;;9.82;5.90;;;;;;;;;;10068815;28;20053;-69
2023/08/22 15:50:35;;;;;;;6.07;5.20;;;;;;;;;;10070353;28;20045;-71
2023/08/22 15:55:27;;;;;;;10.40;5.53;;;;;;;;;;10070481;28;20430;-70
2023/08/22 16:00:19;;;;;;;6.05;4.90;;;;;;;;;;10069442;28;20853;-70
2023/08/22 16:05:11;;;;;;;9.50;5.97;;;;;;;;;;10069848;28;20065;-70
2023/08/22 16:10:03;;;;;;;6.00;4.90;;;;;;;;;;10069125;28;20046;-69
2023/08/22 16:14:55;;;;;;;6.57;5.95;;;;;;;;;;10069153;28;20045;-70
2023/08/22 16:19:47;;;;;;;8.25;6.13;;;;;;;;;;10073279;28;20045;-70
2023/08/22 16:24:39;;;;;;;12.15;7.28;;;;;;;;;;10070244;28;20048;-69
2023/08/22 16:29:31;;;;;;;5.38;4.88;;;;;;;;;;10068232;28;20061;-69
2023/08/22 16:34:23;;;;;;;8.13;4.60;;;;;;;;;;10068610;28;20069;-69
2023/08/22 16:39:17;;;;;;;5.97;4.78;;;;;;;;;;10076435;28;20045;-69
2023/08/22 16:44:09;;;;;;;9.07;5.47;;;;;;;;;;10067510;28;20050;-70
2023/08/22 16:49:02;;;;;;;6.75;6.00;;;;;;;;;;10071408;28;20046;-71
2023/08/22 16:53:54;;;;;;;11.30;5.82;;;;;;;;;;10067584;28;20049;-70
2023/08/22 16:58:45;;;;;;;6.70;5.57;;;;;;;;;;10053646;28;20465;-70
2023/08/22 17:03:49;;;;;;;8.02;5.65;;;;;;;;;;10067311;28;20132;-68
2023/08/22 17:08:42;;;;;;;8.35;5.30;;;;;;;;;;10066455;28;20488;-71
2023/08/22 17:13:37;;;;;;;12.98;6.65;;;;;;;;;;10067754;28;20091;-71
2023/08/22 17:18:30;;;;;;;9.48;6.00;;;;;;;;;;10052398;28;20103;-70
2023/08/22 17:23:22;;;;;;;6.07;5.47;;;;;;;;;;10051525;28;20050;-71
2023/08/22 17:28:14;;;;;;;13.73;7.93;;;;;;;;;;10066062;28;20080;-71
2023/08/22 17:33:06;;;;;;;11.05;5.88;;;;;;;;;;10066696;28;20056;-70
2023/08/22 17:37:58;;;;;;;14.38;6.63;;;;;;;;;;10064636;28;20080;-71
2023/08/22 17:42:50;;;;;;;13.82;6.82;;;;;;;;;;10059310;28;20113;-70
2023/08/22 17:47:42;;;;;;;8.52;5.82;;;;;;;;;;10022397;28;20045;-72
2023/08/22 17:52:35;;;;;;;7.95;6.25;;;;;;;;;;10035239;28;20173;-71
2023/08/22 17:57:27;;;;;;;11.38;6.90;;;;;;;;;;10025327;28;20095;-69
2023/08/22 18:02:18;;;;;;;11.18;6.72;;;;;;;;;;10037263;28;20069;-66
2023/08/22 18:07:10;;;;;;;8.73;7.85;;;;;;;;;;10051147;28;20046;-69
2023/08/22 18:12:02;;;;;;;12.18;6.97;;;;;;;;;;10047811;28;20415;-69
2023/08/22 18:16:55;;;;;;;10.50;5.95;;;;;;;;;;10046407;28;20140;-67
2023/08/22 18:21:49;;;;;;;7.10;6.13;;;;;;;;;;10056269;28;20121;-69
2023/08/22 18:26:41;;;;;;;7.53;6.78;;;;;;;;;;10062899;28;20510;-71
2023/08/22 18:31:33;;;;;;;11.85;6.82;;;;;;;;;;10045376;28;20041;-69
2023/08/22 18:36:27;;;;;;;7.72;6.25;;;;;;;;;;10060542;28;20052;-71
2023/08/22 18:41:19;;;;;;;10.40;7.50;;;;;;;;;;10062743;28;20057;-73
2023/08/22 18:46:11;;;;;;;11.55;7.43;;;;;;;;;;10063439;28;20155;-72
2023/08/22 18:51:03;;;;;;;9.68;7.38;;;;;;;;;;10061920;28;20068;-74
2023/08/22 18:55:55;;;;;;;10.55;6.80;;;;;;;;;;10056754;28;20045;-73
2023/08/22 19:00:47;;;;;;;12.70;7.45;;;;;;;;;;10056499;28;20480;-73
2023/08/22 19:05:39;;;;;;;10.63;7.97;;;;;;;;;;10040445;28;20038;-74
2023/08/22 19:10:31;;;;;;;12.00;7.68;;;;;;;;;;10034349;28;20088;-73
2023/08/22 19:15:23;;;;;;;8.38;7.20;;;;;;;;;;10028427;28;20081;-71
2023/08/22 19:20:17;;;;;;;11.45;8.18;;;;;;;;;;10019007;28;20382;-73
2023/08/22 19:25:10;;;;;;;9.82;7.50;;;;;;;;;;10017613;28;20046;-73
2023/08/22 19:30:02;;;;;;;8.63;7.70;;;;;;;;;;10021105;28;20166;-71
2023/08/22 19:34:54;;;;;;;9.70;7.95;;;;;;;;;;10026181;28;20041;-74
2023/08/22 19:39:49;;;;;;;11.35;7.78;;;;;;;;;;10027065;28;20081;-74
2023/08/22 19:44:41;;;;;;;12.02;7.35;;;;;;;;;;10029128;28;20499;-77
2023/08/22 19:49:33;;;;;;;8.20;7.40;;;;;;;;;;10009436;28;20469;-75
2023/08/22 19:54:25;;;;;;;9.15;7.30;;;;;;;;;;9997202;28;20078;-77
2023/08/22 19:59:17;;;;;;;8.77;7.28;;;;;;;;;;10012359;28;20076;-76
2023/08/22 20:04:09;;;;;;;12.30;7.47;;;;;;;;;;10033846;28;20041;-76
2023/08/22 20:09:13;;;;;;;11.82;8.52;;;;;;;;;;10061256;28;20038;-77
2023/08/22 20:14:05;;;;;;;16.55;7.25;;;;;;;;;;10068752;28;20380;-76
2023/08/22 20:18:59;;;;;;;17.80;7.28;;;;;;;;;;10066974;28;20052;-76
2023/08/22 20:23:51;;;;;;;14.00;8.10;;;;;;;;;;10056229;28;20041;-80
2023/08/22 20:28:43;;;;;;;8.32;6.47;;;;;;;;;;10054138;28;20073;-76
2023/08/22 20:33:35;;;;;;;18.95;9.45;;;;;;;;;;10066490;28;20046;-76
2023/08/22 20:38:28;;;;;;;7.75;7.05;;;;;;;;;;10066269;28;20065;-77
2023/08/22 20:43:20;;;;;;;9.77;8.15;;;;;;;;;;10065710;28;20381;-80
2023/08/22 20:48:12;;;;;;;8.90;7.88;;;;;;;;;;10067649;28;20049;-80
2023/08/22 20:53:03;;;;;;;11.95;8.10;;;;;;;;;;10067183;28;20041;-80
2023/08/22 20:57:55;;;;;;;13.52;7.38;;;;;;;;;;10063192;28;20060;-79
2023/08/22 21:02:47;;;;;;;8.90;7.25;;;;;;;;;;10065983;28;20096;-81
2023/08/22 21:07:40;;;;;;;11.35;7.15;;;;;;;;;;10065697;28;20195;-78
2023/08/22 21:12:34;;;;;;;8.65;6.63;;;;;;;;;;10064693;28;20033;-80
2023/08/22 21:17:26;;;;;;;12.40;8.80;;;;;;;;;;10041388;28;20045;-78
2023/08/22 21:22:18;;;;;;;10.38;8.32;;;;;;;;;;10036987;28;20094;-77
2023/08/22 21:27:11;;;;;;;9.45;8.50;;;;;;;;;;10060306;28;20046;-75
2023/08/22 21:32:04;;;;;;;13.85;7.32;;;;;;;;;;10066234;28;20042;-78
2023/08/22 21:36:57;;;;;;;11.38;6.85;;;;;;;;;;10065268;28;20479;-82
2023/08/22 21:41:49;;;;;;;12.65;8.30;;;;;;;;;;10055074;28;20432;-78
2023/08/22 21:46:40;;;;;;;10.40;9.23;;;;;;;;;;10047230;28;20041;-78
2023/08/22 21:51:32;;;;;;;8.25;7.45;;;;;;;;;;10050732;28;20096;-74
2023/08/22 21:56:24;;;;;;;9.40;7.18;;;;;;;;;;10062602;28;20486;-76
2023/08/22 22:01:16;;;;;;;8.80;8.00;;;;;;;;;;10062790;28;20052;-83
2023/08/22 22:06:08;;;;;;;8.35;7.32;;;;;;;;;;10058632;28;20045;-81
2023/08/22 22:11:01;;;;;;;9.48;7.55;;;;;;;;;;10048484;28;20085;-80
2023/08/22 22:15:54;;;;;;;11.48;7.55;;;;;;;;;;10057198;28;20040;-77
2023/08/22 22:21:00;;;;;;;12.45;8.27;;;;;;;;;;10060292;28;20123;-72
2023/08/22 22:26:06;;;;;;;10.80;7.57;;;;;;;;;;10055812;28;20476;-73
2023/08/22 22:30:58;;;;;;;9.70;7.72;;;;;;;;;;10031842;28;20046;-73
2023/08/22 22:35:51;;;;;;;13.95;8.38;;;;;;;;;;10035981;28;20041;-72
2023/08/22 22:40:43;;;;;;;9.57;8.65;;;;;;;;;;10050525;28;20460;-71
2023/08/22 22:45:39;;;;;;;8.85;7.80;;;;;;;;;;10044990;28;20136;-70
2023/08/22 22:50:31;;;;;;;9.63;7.53;;;;;;;;;;10056714;28;20034;-70
2023/08/22 22:55:23;;;;;;;7.90;7.10;;;;;;;;;;10043764;28;20394;-71
2023/08/22 23:00:15;;;;;;;9.70;7.97;;;;;;;;;;10061764;28;20072;-71
2023/08/22 23:05:07;;;;;;;9.80;8.85;;;;;;;;;;10061788;28;20048;-71
2023/08/22 23:09:59;;;;;;;8.43;7.55;;;;;;;;;;10061729;28;20437;-72
2023/08/22 23:14:52;;;;;;;7.93;7.20;;;;;;;;;;10061702;28;20049;-72
2023/08/22 23:19:44;;;;;;;11.77;8.20;;;;;;;;;;10061459;28;20053;-72
2023/08/22 23:24:35;;;;;;;9.10;7.43;;;;;;;;;;10061422;28;20053;-70
2023/08/22 23:29:29;;;;;;;9.10;8.20;;;;;;;;;;10062448;28;20060;-72
2023/08/22 23:34:21;;;;;;;8.15;7.32;;;;;;;;;;10060663;28;20547;-71
2023/08/22 23:39:13;;;;;;;10.73;7.72;;;;;;;;;;10060616;28;20431;-72
2023/08/22 23:44:12;;;;;;;9.30;6.95;;;;;;;;;;10066500;28;20052;-71
2023/08/22 23:49:04;;;;;;;10.93;8.07;;;;;;;;;;10068207;28;20038;-73
2023/08/22 23:53:56;;;;;;;8.15;7.35;;;;;;;;;;10068125;28;20050;-70
2023/08/22 23:58:48;;;;;;;10.52;7.88;;;;;;;;;;10068435;28;20174;-71
